Time;durP1;ratioP1;P1;durP2;ratioP2;P2;SDS_P1;SDS_P2;PMS_P1;PMS_P2;Temp;Humidity;BMP_temperature;BMP_pressure;BME280_temperature;BME280_humidity;BME280_pressure;Samples;Min_cycle;Max_cycle;Signal;HPM_P1;HPM_P2
2022/06/25 00:01:46;;;;;;;4.47;3.47;;;15.90;99.90;;;;;;5009577;28;20508;-61
2022/06/25 00:06:58;;;;;;;5.60;2.58;;;16.30;99.90;;;;;;5009724;28;20052;-63
2022/06/25 00:09:25;;;;;;;1.50;1.00;;;16.40;99.90;;;;;;5005582;28;20030;-60
2022/06/25 00:14:39;;;;;;;1.20;0.80;;;16.70;99.90;;;;;;5009319;28;20033;-61
2022/06/25 00:17:06;;;;;;;5.00;1.17;;;16.90;99.90;;;;;;5009594;28;20026;-61
2022/06/25 00:19:33;;;;;;;2.75;1.40;;;17.10;99.90;;;;;;5008501;28;20033;-62
2022/06/25 00:22:00;;;;;;;2.55;1.92;;;17.20;99.90;;;;;;5010929;28;20845;-61
2022/06/25 00:24:27;;;;;;;8.82;2.50;;;17.40;99.90;;;;;;5010714;28;20479;-61
2022/06/25 00:26:55;;;;;;;5.05;1.60;;;17.50;99.90;;;;;;5010869;28;20034;-63
2022/06/25 00:29:22;;;;;;;3.13;1.05;;;17.60;99.90;;;;;;5010214;28;20113;-61
2022/06/25 00:31:49;;;;;;;1.73;1.40;;;17.60;99.90;;;;;;5010402;28;20032;-63
2022/06/25 00:34:16;;;;;;;2.65;1.20;;;17.70;99.90;;;;;;4990049;28;20064;-62
2022/06/25 00:36:43;;;;;;;3.42;2.05;;;17.80;99.90;;;;;;5005251;28;20030;-64
2022/06/25 00:39:10;;;;;;;6.15;1.40;;;18.00;99.90;;;;;;5010099;28;20018;-63
2022/06/25 00:41:37;;;;;;;3.22;1.23;;;18.00;99.90;;;;;;5005468;28;20029;-63
2022/06/25 00:44:09;;;;;;;1.38;0.90;;;18.20;99.40;;;;;;5006855;28;20021;-61
2022/06/25 00:46:36;;;;;;;2.17;1.45;;;18.30;99.40;;;;;;5007398;28;20719;-61
2022/06/25 00:49:04;;;;;;;1.30;0.80;;;18.50;98.80;;;;;;5010646;28;20053;-63
2022/06/25 00:51:37;;;;;;;1.65;1.20;;;18.60;98.50;;;;;;5009378;28;20022;-62
2022/06/25 00:54:06;;;;;;;1.00;0.90;;;18.80;98.50;;;;;;5009692;28;20022;-62
2022/06/25 00:56:38;;;;;;;1.13;0.70;;;18.90;98.20;;;;;;5010991;28;20101;-61
2022/06/25 00:59:06;;;;;;;2.47;1.73;;;19.00;97.80;;;;;;5008736;28;20028;-61
2022/06/25 01:01:35;;;;;;;4.50;1.40;;;19.00;97.70;;;;;;5012055;28;20080;-63
2022/06/25 01:04:02;;;;;;;1.52;1.02;;;19.10;97.70;;;;;;5006686;28;20030;-63
2022/06/25 01:06:30;;;;;;;1.20;0.60;;;19.20;97.30;;;;;;5012426;28;20026;-63
2022/06/25 01:08:58;;;;;;;1.63;0.98;;;19.30;97.40;;;;;;4997242;28;20034;-64
2022/06/25 01:11:26;;;;;;;2.78;0.73;;;19.30;96.90;;;;;;5006561;28;20014;-61
2022/06/25 01:13:53;;;;;;;1.88;0.57;;;19.40;96.60;;;;;;5012553;28;20026;-63
2022/06/25 01:16:23;;;;;;;2.13;0.60;;;19.50;96.40;;;;;;5010843;28;20025;-63
2022/06/25 01:18:50;;;;;;;1.25;0.80;;;19.60;96.50;;;;;;5017640;28;20029;-61
2022/06/25 01:21:17;;;;;;;1.80;0.52;;;19.80;96.10;;;;;;5012207;28;20434;-61
2022/06/25 01:23:44;;;;;;;2.30;0.80;;;19.80;95.30;;;;;;5008970;28;20026;-61
2022/06/25 01:26:12;;;;;;;2.60;0.68;;;20.00;94.70;;;;;;5015848;28;20076;-61
2022/06/25 01:28:39;;;;;;;1.05;0.70;;;20.00;94.90;;;;;;5008999;28;20546;-62
2022/06/25 01:31:06;;;;;;;2.35;0.60;;;20.00;94.90;;;;;;5010323;28;20038;-61
2022/06/25 01:33:33;;;;;;;3.75;1.40;;;20.00;94.60;;;;;;5012886;28;20030;-63
2022/06/25 01:36:00;;;;;;;3.25;1.45;;;20.10;94.60;;;;;;5015598;28;20048;-61
2022/06/25 01:38:27;;;;;;;1.83;1.27;;;20.10;94.10;;;;;;5014981;28;20030;-63
2022/06/25 01:40:54;;;;;;;1.17;0.60;;;20.20;94.40;;;;;;5018326;28;20045;-64
2022/06/25 01:43:22;;;;;;;1.63;0.75;;;20.30;94.00;;;;;;5012590;28;20091;-61
2022/06/25 01:45:49;;;;;;;2.63;1.40;;;20.60;93.90;;;;;;5009636;28;20061;-61
2022/06/25 01:48:16;;;;;;;1.92;0.93;;;20.70;93.20;;;;;;5015025;28;20017;-64
2022/06/25 01:50:43;;;;;;;2.03;1.00;;;20.50;93.00;;;;;;5015382;28;20085;-64
2022/06/25 01:53:10;;;;;;;1.27;0.60;;;20.20;93.60;;;;;;5009759;28;20033;-61
2022/06/25 01:55:38;;;;;;;1.50;0.80;;;20.20;93.40;;;;;;5007198;28;20386;-61
2022/06/25 01:58:05;;;;;;;2.08;0.75;;;20.30;92.60;;;;;;5007081;28;20052;-63
2022/06/25 02:00:32;;;;;;;2.63;0.90;;;20.30;92.90;;;;;;5007775;28;20018;-62
2022/06/25 02:03:00;;;;;;;1.40;0.63;;;20.20;93.10;;;;;;5008317;28;20026;-61
2022/06/25 02:08:15;;;;;;;2.05;0.65;;;20.60;92.80;;;;;;5006671;28;20029;-61
2022/06/25 02:10:43;;;;;;;1.45;0.85;;;21.00;92.50;;;;;;5007202;28;20014;-61
2022/06/25 02:13:10;;;;;;;4.78;2.90;;;21.00;92.20;;;;;;5010127;28;20094;-64
2022/06/25 02:15:38;;;;;;;2.70;1.30;;;21.20;92.30;;;;;;5016410;28;20021;-64
2022/06/25 02:18:05;;;;;;;4.95;3.80;;;21.20;91.80;;;;;;5014264;28;20037;-63
2022/06/25 02:20:33;;;;;;;0.45;0.43;;;20.90;92.00;;;;;;5011454;28;20101;-62
2022/06/25 02:23:01;;;;;;;3.15;0.80;;;20.80;92.20;;;;;;5011284;28;20033;-61
2022/06/25 02:25:28;;;;;;;2.25;0.85;;;20.70;92.70;;;;;;5009681;28;20030;-64
2022/06/25 02:27:55;;;;;;;5.45;4.75;;;20.70;92.20;;;;;;5009021;28;20060;-61
2022/06/25 02:30:22;;;;;;;2.60;2.08;;;20.40;92.50;;;;;;5003506;28;20132;-61
2022/06/25 02:32:49;;;;;;;1.63;0.98;;;20.50;92.40;;;;;;5007651;28;20034;-62
2022/06/25 02:35:17;;;;;;;2.20;0.80;;;20.60;92.40;;;;;;5003400;28;20054;-61
2022/06/25 02:37:44;;;;;;;2.38;0.70;;;20.40;92.20;;;;;;5003873;28;20454;-61
2022/06/25 02:40:12;;;;;;;1.52;0.80;;;20.10;92.00;;;;;;5008842;28;20018;-61
2022/06/25 02:42:41;;;;;;;1.48;0.65;;;20.10;92.50;;;;;;5007137;28;20653;-63
2022/06/25 02:45:09;;;;;;;2.63;1.73;;;20.20;92.10;;;;;;5010062;28;20026;-64
2022/06/25 02:47:37;;;;;;;1.30;0.70;;;20.40;92.20;;;;;;5003566;28;20033;-64
2022/06/25 02:50:05;;;;;;;0.90;0.60;;;20.70;91.40;;;;;;5010030;28;20564;-63
2022/06/25 02:52:32;;;;;;;1.33;0.80;;;20.90;91.20;;;;;;5007335;28;20017;-63
2022/06/25 02:54:59;;;;;;;2.60;0.75;;;21.20;91.80;;;;;;5006370;28;20182;-64
2022/06/25 03:00:13;;;;;;;0.88;0.50;;;21.50;90.00;;;;;;5003935;28;20104;-64
2022/06/25 03:02:41;;;;;;;2.88;0.57;;;21.30;89.10;;;;;;5003922;28;20029;-64
2022/06/25 03:05:08;;;;;;;2.28;0.50;;;21.30;90.00;;;;;;5003747;28;20413;-64
2022/06/25 03:07:36;;;;;;;0.65;0.55;;;21.30;90.20;;;;;;5003505;28;20030;-64
2022/06/25 03:10:03;;;;;;;1.90;0.50;;;21.30;89.40;;;;;;5003087;28;20033;-63
2022/06/25 03:12:31;;;;;;;1.25;0.50;;;21.30;88.90;;;;;;5003314;28;20088;-63
2022/06/25 03:14:58;;;;;;;1.42;0.60;;;21.20;88.70;;;;;;5006411;28;20063;-63
2022/06/25 03:17:25;;;;;;;1.13;0.47;;;21.30;90.10;;;;;;5006120;28;20021;-62
2022/06/25 03:19:52;;;;;;;3.60;0.73;;;21.30;90.00;;;;;;5007821;28;20120;-64
2022/06/25 03:22:20;;;;;;;2.90;0.52;;;21.40;89.90;;;;;;5008633;28;20052;-63
2022/06/25 03:24:48;;;;;;;1.63;0.90;;;21.40;89.80;;;;;;5008158;28;20026;-63
2022/06/25 03:27:15;;;;;;;4.60;0.50;;;21.20;90.00;;;;;;5007119;28;20042;-61
2022/06/25 03:29:42;;;;;;;3.85;0.50;;;21.30;89.80;;;;;;5009162;28;20052;-63
2022/06/25 03:32:09;;;;;;;1.90;0.50;;;21.20;89.30;;;;;;5007757;28;20385;-62
2022/06/25 03:34:36;;;;;;;1.70;0.50;;;21.20;90.20;;;;;;5003021;28;20022;-62
2022/06/25 03:37:03;;;;;;;0.65;0.50;;;21.30;90.00;;;;;;5008069;28;20100;-64
2022/06/25 03:39:30;;;;;;;1.40;0.60;;;21.50;90.10;;;;;;5009384;28;20025;-62
2022/06/25 03:41:58;;;;;;;2.05;0.50;;;21.60;88.80;;;;;;5008807;28;20032;-62
2022/06/25 03:44:25;;;;;;;1.27;0.52;;;21.70;89.20;;;;;;5010484;28;20030;-62
2022/06/25 03:46:52;;;;;;;3.33;0.85;;;21.70;89.40;;;;;;4992152;28;20308;-62
2022/06/25 03:49:19;;;;;;;4.10;0.70;;;21.80;88.40;;;;;;5008964;28;20137;-64
2022/06/25 03:51:46;;;;;;;1.85;0.57;;;21.80;88.70;;;;;;5008260;28;20122;-63
2022/06/25 03:54:13;;;;;;;0.68;0.50;;;21.90;89.00;;;;;;5008061;28;20398;-64
2022/06/25 03:56:41;;;;;;;3.38;0.88;;;21.90;88.60;;;;;;5007811;28;20116;-64
2022/06/25 03:59:08;;;;;;;5.22;3.33;;;22.00;87.80;;;;;;5007054;28;20083;-65
2022/06/25 04:01:35;;;;;;;3.80;0.77;;;21.90;87.70;;;;;;5007747;28;20033;-63
2022/06/25 04:04:02;;;;;;;3.33;1.48;;;21.90;87.20;;;;;;5011857;28;20029;-63
2022/06/25 04:06:29;;;;;;;1.48;0.73;;;21.80;88.30;;;;;;5009503;28;20261;-62
2022/06/25 04:08:56;;;;;;;2.03;0.57;;;21.90;87.30;;;;;;5011095;28;20033;-62
2022/06/25 04:11:23;;;;;;;2.10;0.77;;;21.90;87.50;;;;;;5008256;28;20026;-62
2022/06/25 04:13:51;;;;;;;1.00;0.60;;;21.80;88.30;;;;;;4991668;28;20439;-62
2022/06/25 04:16:18;;;;;;;3.15;0.70;;;21.80;86.90;;;;;;5007355;28;20662;-63
2022/06/25 04:18:46;;;;;;;0.80;0.50;;;21.80;86.50;;;;;;4657674;28;10000119;-63
2022/06/25 04:21:13;;;;;;;0.70;0.40;;;21.60;86.20;;;;;;5004301;28;20026;-64
2022/06/25 04:23:40;;;;;;;2.03;0.60;;;21.40;86.90;;;;;;5004505;28;20057;-62
2022/06/25 04:26:08;;;;;;;0.85;0.45;;;21.50;87.00;;;;;;5006028;28;20038;-62
2022/06/25 04:31:42;;;;;;;1.17;0.63;;;21.50;86.50;;;;;;4869675;29;20068;-62
2022/06/25 04:34:09;;;;;;;1.85;0.50;;;21.50;85.80;;;;;;4868286;29;20023;-63
2022/06/25 04:36:37;;;;;;;3.38;0.63;;;21.30;86.70;;;;;;4863558;29;20043;-63
2022/06/25 04:39:04;;;;;;;0.52;0.40;;;21.20;87.00;;;;;;4860744;29;20033;-64
2022/06/25 04:41:31;;;;;;;0.75;0.30;;;21.30;86.30;;;;;;4860044;29;20040;-64
2022/06/25 04:44:01;;;;;;;0.60;0.45;;;21.30;86.60;;;;;;4861510;29;20052;-62
2022/06/25 04:46:29;;;;;;;2.38;0.50;;;21.20;86.30;;;;;;4868505;29;20033;-63
2022/06/25 04:48:58;;;;;;;0.82;0.40;;;21.00;86.20;;;;;;4872617;29;20148;-62
2022/06/25 04:51:26;;;;;;;1.48;0.40;;;21.00;86.70;;;;;;4858119;29;20148;-62
2022/06/25 04:53:57;;;;;;;0.88;0.50;;;21.10;86.00;;;;;;4865614;29;20068;-61
2022/06/25 04:56:29;;;;;;;0.85;0.50;;;20.90;87.10;;;;;;4864718;29;20132;-63
2022/06/25 04:58:58;;;;;;;1.30;0.60;;;20.90;87.50;;;;;;4859897;29;20076;-63
2022/06/25 05:01:25;;;;;;;1.77;0.60;;;21.00;87.50;;;;;;4867322;28;20048;-62
2022/06/25 05:03:52;;;;;;;2.78;0.80;;;21.00;87.50;;;;;;4964733;28;20105;-63
2022/06/25 05:06:20;;;;;;;0.90;0.30;;;21.20;88.00;;;;;;4963082;28;20557;-65
2022/06/25 05:08:48;;;;;;;1.08;0.30;;;21.50;85.90;;;;;;4961384;28;20511;-65
2022/06/25 05:11:15;;;;;;;2.40;0.60;;;21.60;87.70;;;;;;4967206;28;20029;-64
2022/06/25 05:13:42;;;;;;;1.67;0.47;;;21.60;87.60;;;;;;4964609;28;20443;-64
2022/06/25 05:16:09;;;;;;;1.75;0.30;;;21.60;85.20;;;;;;4962985;28;20133;-64
2022/06/25 05:18:36;;;;;;;0.73;0.38;;;21.60;86.40;;;;;;4958738;28;20226;-65
2022/06/25 05:21:04;;;;;;;4.75;0.65;;;21.60;85.20;;;;;;4961707;28;20778;-64
2022/06/25 05:23:31;;;;;;;1.73;0.68;;;21.70;85.00;;;;;;4963690;28;20070;-64
2022/06/25 05:25:58;;;;;;;2.13;0.50;;;21.70;85.00;;;;;;4966012;28;20035;-66
2022/06/25 05:28:25;;;;;;;2.67;0.70;;;21.90;85.90;;;;;;4964005;28;20491;-64
2022/06/25 05:30:52;;;;;;;2.53;0.43;;;21.80;85.60;;;;;;4981505;23;20054;-65
2022/06/25 05:33:19;;;;;;;0.70;0.40;;;21.20;86.10;;;;;;4968787;28;20729;-65
2022/06/25 05:35:46;;;;;;;2.83;0.52;;;20.80;87.40;;;;;;4975317;28;20483;-63
2022/06/25 05:38:14;;;;;;;1.70;0.38;;;20.40;88.40;;;;;;4969318;28;20030;-64
2022/06/25 05:40:41;;;;;;;2.20;0.40;;;20.50;87.00;;;;;;4970199;28;20027;-67
2022/06/25 05:43:08;;;;;;;3.38;0.77;;;21.00;86.50;;;;;;4974420;28;20030;-65
2022/06/25 05:45:38;;;;;;;0.50;0.40;;;20.90;86.10;;;;;;4971035;28;20474;-66
2022/06/25 05:48:08;;;;;;;1.65;0.50;;;20.40;88.30;;;;;;4974318;28;20367;-63
2022/06/25 05:50:39;;;;;;;0.65;0.32;;;20.20;87.90;;;;;;4973635;28;20074;-66
2022/06/25 05:53:09;;;;;;;1.15;0.50;;;20.10;88.50;;;;;;4973831;28;20499;-63
2022/06/25 05:55:39;;;;;;;2.70;0.45;;;20.00;89.30;;;;;;4973324;28;20027;-64
2022/06/25 05:58:06;;;;;;;3.60;0.32;;;19.90;89.00;;;;;;4969859;28;20096;-64
2022/06/25 06:00:33;;;;;;;0.43;0.40;;;19.80;90.20;;;;;;4969851;28;20110;-63
2022/06/25 06:03:00;;;;;;;0.45;0.20;;;19.50;91.30;;;;;;4954154;28;20043;-67
2022/06/25 06:05:27;;;;;;;1.52;0.30;;;19.30;91.10;;;;;;4953050;28;20031;-64
2022/06/25 06:07:55;;;;;;;3.55;0.82;;;19.30;90.90;;;;;;4954835;28;20035;-63
2022/06/25 06:10:22;;;;;;;0.88;0.45;;;19.10;90.80;;;;;;4952986;28;20035;-63
2022/06/25 06:12:57;;;;;;;3.63;0.35;;;18.90;91.80;;;;;;5057036;27;20453;-62
2022/06/25 06:15:25;;;;;;;0.60;0.43;;;18.70;92.20;;;;;;5050728;28;20413;-66
2022/06/25 06:17:52;;;;;;;3.08;0.85;;;18.50;93.30;;;;;;5054752;28;20033;-62
2022/06/25 06:20:19;;;;;;;4.35;0.60;;;18.40;92.70;;;;;;5051027;28;20053;-62
2022/06/25 06:22:46;;;;;;;1.58;0.40;;;18.40;92.40;;;;;;5048761;28;20029;-66
2022/06/25 06:25:13;;;;;;;4.53;0.65;;;18.30;94.40;;;;;;5051364;28;20454;-65
2022/06/25 06:27:40;;;;;;;1.33;0.43;;;18.00;92.90;;;;;;5050505;28;20028;-62
2022/06/25 06:30:10;;;;;;;1.60;0.47;;;18.00;93.00;;;;;;5046381;28;20036;-67
2022/06/25 06:32:37;;;;;;;2.00;0.60;;;18.00;92.70;;;;;;5054843;28;20029;-66
2022/06/25 06:35:05;;;;;;;2.70;0.57;;;17.70;94.10;;;;;;5049719;28;20028;-67
2022/06/25 06:37:32;;;;;;;1.00;0.50;;;17.50;94.20;;;;;;5048796;28;20017;-66
2022/06/25 06:39:59;;;;;;;1.58;0.65;;;17.40;95.60;;;;;;5053220;28;20052;-62
2022/06/25 06:42:26;;;;;;;5.05;3.15;;;17.30;95.30;;;;;;5049407;28;20021;-66
2022/06/25 06:44:54;;;;;;;3.03;1.50;;;17.10;95.70;;;;;;5048947;28;20074;-65
2022/06/25 06:47:21;;;;;;;1.38;0.60;;;16.90;96.10;;;;;;5052690;28;20087;-68
2022/06/25 06:49:48;;;;;;;2.92;1.65;;;16.90;96.80;;;;;;5055210;28;20566;-62
2022/06/25 06:52:19;;;;;;;1.33;0.70;;;16.70;96.10;;;;;;5051552;28;20049;-64
2022/06/25 06:54:49;;;;;;;2.65;1.02;;;16.50;96.40;;;;;;5052202;28;20021;-62
2022/06/25 06:57:19;;;;;;;2.40;0.80;;;16.30;96.20;;;;;;5052614;28;20081;-61
2022/06/25 06:59:49;;;;;;;2.58;0.85;;;16.10;96.80;;;;;;5053095;28;20029;-66
2022/06/25 07:02:16;;;;;;;0.68;0.40;;;16.00;97.20;;;;;;5054175;28;20184;-62
2022/06/25 07:04:43;;;;;;;1.85;0.60;;;15.80;97.50;;;;;;5051810;28;20024;-61
2022/06/25 07:07:10;;;;;;;1.15;0.43;;;15.60;98.00;;;;;;5052022;28;20040;-61
2022/06/25 07:09:37;;;;;;;1.83;0.55;;;15.40;98.40;;;;;;5054257;28;20033;-65
2022/06/25 07:12:05;;;;;;;1.42;0.65;;;15.20;98.80;;;;;;5049697;28;20127;-62
2022/06/25 07:14:32;;;;;;;0.88;0.60;;;15.10;99.20;;;;;;5054769;28;20499;-64
2022/06/25 07:16:59;;;;;;;3.55;1.30;;;15.00;99.70;;;;;;5049183;28;20486;-65
2022/06/25 07:19:26;;;;;;;2.05;1.10;;;14.90;99.90;;;;;;5049752;28;20056;-64
2022/06/25 07:21:54;;;;;;;1.52;0.90;;;14.70;99.90;;;;;;5049729;28;20476;-64
2022/06/25 07:24:25;;;;;;;1.60;0.90;;;14.70;99.90;;;;;;5024126;28;20420;-65
2022/06/25 07:26:55;;;;;;;1.23;0.80;;;14.60;99.90;;;;;;5036038;28;20033;-64
2022/06/25 07:29:22;;;;;;;2.15;0.50;;;14.50;99.90;;;;;;5032909;28;20033;-65
2022/06/25 07:31:49;;;;;;;2.97;0.70;;;14.30;99.90;;;;;;5032823;28;20029;-64
2022/06/25 07:34:17;;;;;;;2.38;0.80;;;14.30;99.90;;;;;;5037646;28;20017;-64
2022/06/25 07:36:44;;;;;;;1.73;0.50;;;14.20;99.90;;;;;;5035051;28;20514;-67
2022/06/25 07:39:12;;;;;;;1.00;0.77;;;14.10;99.90;;;;;;5038908;28;20231;-62
2022/06/25 07:41:39;;;;;;;2.58;0.70;;;14.00;99.90;;;;;;5037567;28;20029;-65
2022/06/25 07:44:06;;;;;;;1.08;0.60;;;13.90;99.90;;;;;;5037869;28;20043;-62
2022/06/25 07:46:33;;;;;;;3.50;0.73;;;13.80;99.90;;;;;;5038507;28;20695;-63
2022/06/25 07:49:00;;;;;;;1.02;0.80;;;13.70;99.90;;;;;;5037906;28;20033;-64
2022/06/25 07:54:13;;;;;;;1.90;0.80;;;13.50;99.90;;;;;;5038564;28;20442;-64
2022/06/25 07:56:40;;;;;;;1.13;0.70;;;13.50;99.90;;;;;;5034572;28;20036;-65
2022/06/25 07:59:07;;;;;;;1.25;0.82;;;13.40;99.90;;;;;;5033495;28;20336;-63
2022/06/25 08:01:34;;;;;;;1.75;1.00;;;13.30;99.90;;;;;;5038264;28;20468;-63
2022/06/25 08:04:01;;;;;;;3.20;1.27;;;13.30;99.90;;;;;;5037275;28;20033;-62
2022/06/25 08:06:28;;;;;;;2.47;1.23;;;13.40;99.90;;;;;;5038589;28;20510;-62
2022/06/25 08:08:55;;;;;;;3.00;1.50;;;13.40;99.90;;;;;;5038070;28;20440;-64
2022/06/25 08:11:23;;;;;;;3.95;2.20;;;13.40;99.90;;;;;;5033510;28;20503;-64
2022/06/25 08:13:50;;;;;;;4.97;1.85;;;13.40;99.90;;;;;;5036541;28;20052;-64
2022/06/25 08:16:17;;;;;;;1.85;1.42;;;13.50;99.90;;;;;;5039839;28;20271;-63
2022/06/25 08:18:44;;;;;;;2.38;1.42;;;13.60;99.90;;;;;;5039181;28;20016;-63
2022/06/25 08:21:11;;;;;;;2.95;2.00;;;13.70;99.90;;;;;;5037485;28;20059;-68
2022/06/25 08:23:38;;;;;;;3.33;1.60;;;13.70;99.90;;;;;;5038321;28;20135;-68
2022/06/25 08:26:05;;;;;;;3.50;2.40;;;13.70;99.90;;;;;;5041082;28;20040;-66
2022/06/25 08:28:33;;;;;;;6.10;2.75;;;13.60;99.90;;;;;;5037371;28;20075;-67
2022/06/25 08:31:00;;;;;;;5.38;3.72;;;13.50;99.90;;;;;;5033727;28;20036;-68
2022/06/25 08:33:27;;;;;;;11.30;7.60;;;13.30;99.90;;;;;;5030398;28;20757;-68
2022/06/25 08:35:54;;;;;;;14.90;10.25;;;13.30;99.90;;;;;;5035660;28;20770;-65
2022/06/25 08:38:21;;;;;;;9.35;6.80;;;13.20;99.90;;;;;;5034045;28;20479;-64
2022/06/25 08:40:49;;;;;;;11.35;7.30;;;13.30;99.90;;;;;;5032166;28;20385;-64
2022/06/25 08:43:16;;;;;;;6.65;4.97;;;13.20;99.90;;;;;;5030183;28;20112;-64
2022/06/25 08:45:43;;;;;;;9.45;4.85;;;13.20;99.90;;;;;;5030288;28;20464;-65
2022/06/25 08:48:32;;;;;;;8.05;4.97;;;13.10;99.90;;;;;;5030487;28;20018;-63
2022/06/25 08:51:01;;;;;;;6.85;4.15;;;12.90;99.90;;;;;;5025062;28;20044;-67
2022/06/25 08:53:33;;;;;;;5.22;3.60;;;12.90;99.90;;;;;;5034884;28;20476;-64
2022/06/25 08:56:01;;;;;;;7.38;4.40;;;12.90;99.90;;;;;;5036558;28;20051;-65
2022/06/25 08:58:28;;;;;;;6.85;3.20;;;12.80;99.90;;;;;;5036019;28;20029;-66
2022/06/25 09:00:56;;;;;;;5.85;3.25;;;12.70;99.90;;;;;;5030176;28;20026;-65
2022/06/25 09:03:23;;;;;;;4.68;2.75;;;12.50;99.90;;;;;;5028334;28;20033;-63
2022/06/25 09:05:50;;;;;;;4.88;3.28;;;12.40;99.90;;;;;;5026193;28;20718;-65
2022/06/25 09:08:18;;;;;;;6.35;3.75;;;12.20;99.90;;;;;;5029690;28;20076;-63
2022/06/25 09:10:52;;;;;;;3.90;2.33;;;12.30;99.90;;;;;;5029047;28;20864;-65
2022/06/25 09:13:24;;;;;;;5.78;2.58;;;12.30;99.90;;;;;;5027246;28;20052;-65
2022/06/25 09:15:51;;;;;;;;;;;12.20;99.90;;;;;;5036439;28;20036;-65
2022/06/25 09:18:19;;;;;;;5.70;2.10;;;12.10;99.90;;;;;;5033426;28;19943;-65
2022/06/25 09:20:57;;;;;;;8.30;2.58;;;12.20;99.90;;;;;;5029966;28;20029;-64
2022/06/25 09:23:25;;;;;;;6.05;3.28;;;12.30;99.90;;;;;;5027419;28;20032;-64
2022/06/25 09:26:12;;;;;;;10.73;3.50;;;12.30;99.90;;;;;;5028974;28;20112;-64
2022/06/25 09:28:41;;;;;;;13.70;3.00;;;12.20;99.90;;;;;;5034049;28;20053;-65
2022/06/25 09:31:09;;;;;;;8.57;2.80;;;12.20;99.90;;;;;;5033546;28;20328;-65
2022/06/25 09:33:38;;;;;;;7.22;3.20;;;12.10;99.90;;;;;;5029771;28;20064;-64
2022/06/25 09:36:09;;;;;;;10.23;2.97;;;12.10;99.90;;;;;;5034195;28;20055;-66
2022/06/25 09:38:49;;;;;;;8.18;2.78;;;12.10;99.90;;;;;;5035633;28;20029;-64
2022/06/25 09:41:16;;;;;;;14.75;3.90;;;11.90;99.90;;;;;;5029181;28;20027;-66
2022/06/25 09:43:47;;;;;;;13.43;4.47;;;11.90;99.90;;;;;;5026787;28;20209;-66
2022/06/25 09:46:18;;;;;;;14.70;3.50;;;11.80;99.90;;;;;;5034821;28;20045;-64
2022/06/25 09:48:45;;;;;;;12.70;3.17;;;11.80;99.90;;;;;;5035310;28;20090;-65
2022/06/25 09:51:13;;;;;;;12.25;3.10;;;11.60;99.90;;;;;;5028529;28;20467;-68
2022/06/25 09:53:53;;;;;;;12.95;3.17;;;11.40;99.90;;;;;;5033270;28;20018;-64
2022/06/25 09:56:25;;;;;;;13.95;4.07;;;11.30;99.90;;;;;;5033078;28;20028;-64
2022/06/25 09:58:56;;;;;;;13.90;3.40;;;11.20;99.90;;;;;;5032857;28;20029;-64
2022/06/25 10:01:26;;;;;;;14.65;4.55;;;11.20;99.90;;;;;;5033399;28;20947;-63
2022/06/25 10:03:55;;;;;;;10.50;3.22;;;11.20;99.90;;;;;;5030449;28;20506;-63
2022/06/25 10:06:24;;;;;;;11.82;3.58;;;11.20;99.90;;;;;;5031379;28;20047;-64
2022/06/25 10:08:55;;;;;;;13.32;4.60;;;11.10;99.90;;;;;;5032201;28;20136;-64
2022/06/25 10:11:25;;;;;;;25.90;10.27;;;11.20;99.90;;;;;;5031911;28;20095;-63
2022/06/25 10:13:53;;;;;;;14.85;7.03;;;11.20;99.90;;;;;;5032079;28;20691;-65
2022/06/25 10:16:23;;;;;;;17.40;7.22;;;11.10;99.90;;;;;;5028511;28;20018;-64
2022/06/25 10:18:53;;;;;;;18.42;7.72;;;11.10;99.90;;;;;;5033340;28;20495;-66
2022/06/25 10:21:23;;;;;;;10.40;4.03;;;10.90;99.90;;;;;;5036248;28;20029;-65
2022/06/25 10:23:59;;;;;;;24.30;6.75;;;10.90;99.90;;;;;;5035155;28;20473;-67
2022/06/25 10:26:26;;;;;;;28.65;6.00;;;10.90;99.90;;;;;;5033347;28;20514;-65
2022/06/25 10:28:54;;;;;;;18.85;5.50;;;11.00;99.90;;;;;;5030964;28;20029;-64
2022/06/25 10:31:21;;;;;;;24.88;5.88;;;10.90;99.90;;;;;;5034486;28;20547;-63
2022/06/25 10:33:55;;;;;;;15.60;6.65;;;10.90;99.90;;;;;;5027688;28;20160;-65
2022/06/25 10:36:42;;;;;;;16.02;6.00;;;10.80;99.90;;;;;;5033921;28;20335;-64
2022/06/25 10:39:27;;;;;;;11.63;4.60;;;10.70;99.90;;;;;;5037308;28;20523;-66
2022/06/25 10:45:28;;;;;;;11.65;4.68;;;10.40;99.90;;;;;;5033568;28;20290;-64
2022/06/25 10:47:57;;;;;;;15.23;4.78;;;10.40;99.90;;;;;;5029330;28;20033;-65
2022/06/25 10:50:25;;;;;;;10.05;3.97;;;10.40;99.90;;;;;;5036352;28;20025;-66
2022/06/25 10:53:05;;;;;;;8.88;3.72;;;10.40;99.90;;;;;;5031971;28;20029;-65
2022/06/25 10:55:39;;;;;;;17.20;5.10;;;10.40;99.90;;;;;;5035930;28;20514;-66
2022/06/25 10:58:19;;;;;;;12.48;4.15;;;10.30;99.90;;;;;;5032499;28;20029;-66
2022/06/25 11:00:55;;;;;;;14.05;3.72;;;10.40;99.90;;;;;;5036498;28;20054;-66
2022/06/25 11:03:29;;;;;;;10.18;4.00;;;10.30;99.90;;;;;;5031910;28;20547;-67
2022/06/25 11:06:18;;;;;;;7.65;5.90;;;10.20;99.90;;;;;;5038162;28;20047;-67
2022/06/25 11:08:46;;;;;;;6.68;3.45;;;10.10;99.90;;;;;;5037127;28;20555;-68
2022/06/25 11:11:27;;;;;;;3.55;2.67;;;10.00;99.90;;;;;;5034556;28;20045;-66
2022/06/25 11:13:55;;;;;;;6.47;2.85;;;10.10;99.90;;;;;;5030010;28;20108;-67
2022/06/25 11:16:24;;;;;;;10.40;3.30;;;10.10;99.90;;;;;;5036961;28;20061;-66
2022/06/25 11:19:00;;;;;;;6.32;2.90;;;10.20;99.90;;;;;;5034875;28;20018;-65
2022/06/25 11:21:27;;;;;;;6.38;3.05;;;10.00;99.90;;;;;;5033781;28;20147;-66
2022/06/25 11:24:25;;;;;;;8.70;4.28;;;10.10;99.90;;;;;;5032972;28;20057;-64
2022/06/25 11:29:51;;;;;;;11.80;6.38;;;9.90;99.90;;;;;;5036180;28;20048;-63
2022/06/25 11:32:25;;;;;;;8.68;4.63;;;9.70;99.90;;;;;;5036862;28;20041;-67
2022/06/25 11:34:54;;;;;;;5.60;3.05;;;9.60;99.90;;;;;;5032164;28;20109;-64
2022/06/25 11:37:21;;;;;;;4.47;3.25;;;9.50;99.90;;;;;;5037185;28;20028;-65
2022/06/25 11:39:49;;;;;;;9.93;4.95;;;9.60;99.90;;;;;;5039505;28;20380;-65
2022/06/25 11:42:17;;;;;;;21.30;11.98;;;9.50;99.90;;;;;;5035739;28;20031;-64
2022/06/25 11:44:44;;;;;;;20.55;12.68;;;9.40;99.90;;;;;;5039044;28;20090;-66
2022/06/25 11:47:26;;;;;;;19.15;10.30;;;9.30;99.90;;;;;;5035878;28;20032;-65
2022/06/25 11:49:54;;;;;;;16.48;7.55;;;9.20;99.90;;;;;;5037035;28;20022;-65
2022/06/25 11:52:23;;;;;;;13.63;7.13;;;9.20;99.90;;;;;;5038809;28;20029;-63
2022/06/25 11:54:52;;;;;;;10.15;7.82;;;9.30;99.90;;;;;;5032913;28;20026;-67
2022/06/25 11:57:26;;;;;;;13.18;6.88;;;9.40;99.90;;;;;;5034102;28;20037;-67
2022/06/25 11:59:55;;;;;;;9.35;5.65;;;9.30;99.90;;;;;;5033163;28;20507;-67
2022/06/25 12:02:22;;;;;;;10.25;5.32;;;9.20;99.90;;;;;;5039017;28;20616;-65
2022/06/25 12:04:58;;;;;;;9.57;6.45;;;9.10;99.90;;;;;;5036890;28;20518;-66
2022/06/25 12:07:28;;;;;;;9.95;6.40;;;8.90;99.90;;;;;;5031328;28;20393;-67
2022/06/25 12:10:00;;;;;;;11.10;8.95;;;9.00;99.90;;;;;;5034077;28;20029;-66
2022/06/25 12:12:28;;;;;;;12.07;7.53;;;9.10;99.90;;;;;;5035835;28;20049;-66
2022/06/25 12:14:59;;;;;;;13.77;7.10;;;9.10;99.90;;;;;;5035987;28;20021;-67
2022/06/25 12:17:33;;;;;;;11.75;6.43;;;9.10;99.90;;;;;;5032638;28;20087;-66
2022/06/25 12:20:11;;;;;;;9.40;5.90;;;9.00;99.90;;;;;;5034763;28;20323;-66
2022/06/25 12:22:42;;;;;;;9.00;6.40;;;8.80;99.90;;;;;;5036251;28;20388;-66
2022/06/25 12:25:22;;;;;;;9.98;6.40;;;8.70;99.90;;;;;;5037256;28;20029;-68
2022/06/25 12:27:50;;;;;;;13.43;8.98;;;8.70;99.90;;;;;;5040717;28;20480;-66
2022/06/25 12:30:36;;;;;;;10.88;7.93;;;8.70;99.90;;;;;;5039495;28;20037;-66
2022/06/25 12:33:13;;;;;;;10.52;6.75;;;8.80;99.90;;;;;;5039149;28;20593;-66
2022/06/25 12:35:45;;;;;;;10.05;7.13;;;8.80;99.90;;;;;;5035132;28;20018;-66
2022/06/25 12:38:16;;;;;;;9.98;6.60;;;8.90;99.90;;;;;;5040622;28;20537;-65
2022/06/25 12:40:52;;;;;;;10.25;7.25;;;8.80;99.90;;;;;;5038927;28;20138;-66
2022/06/25 12:43:20;;;;;;;10.75;7.28;;;8.70;99.90;;;;;;5036183;28;20282;-64
2022/06/25 12:45:50;;;;;;;11.85;8.07;;;8.60;99.90;;;;;;5039116;28;20434;-64
2022/06/25 12:48:32;;;;;;;12.70;7.43;;;8.40;99.90;;;;;;5039049;28;20644;-66
2022/06/25 12:51:10;;;;;;;8.18;7.10;;;8.30;99.90;;;;;;5036794;28;20029;-68
2022/06/25 12:53:38;;;;;;;13.60;8.18;;;8.40;99.90;;;;;;5038698;28;20028;-66
2022/06/25 12:56:05;;;;;;;10.05;7.43;;;8.40;99.90;;;;;;5037967;28;20031;-66
2022/06/25 12:58:40;;;;;;;13.30;9.15;;;8.40;99.90;;;;;;5037116;28;20107;-65
2022/06/25 13:01:22;;;;;;;10.80;7.75;;;8.30;99.90;;;;;;5037476;28;20025;-66
2022/06/25 13:03:49;;;;;;;11.93;8.32;;;8.20;99.90;;;;;;5039295;28;20475;-67
2022/06/25 13:06:16;;;;;;;12.18;8.50;;;8.10;99.90;;;;;;5037610;28;20487;-65
2022/06/25 13:08:43;;;;;;;14.23;9.57;;;8.00;99.90;;;;;;5037722;28;20043;-68
2022/06/25 13:11:21;;;;;;;12.13;9.63;;;8.10;99.90;;;;;;5035834;28;20132;-68
2022/06/25 13:13:49;;;;;;;13.52;10.20;;;8.20;99.90;;;;;;5037687;28;20382;-67
2022/06/25 13:16:19;;;;;;;14.25;11.30;;;8.10;99.90;;;;;;5036588;28;20395;-68
2022/06/25 13:18:46;;;;;;;12.13;10.20;;;8.10;99.90;;;;;;5037884;28;20021;-67